Time;durP1;ratioP1;P1;durP2;ratioP2;P2;SDS_P1;SDS_P2;PMS_P1;PMS_P2;Temp;Humidity;BMP_temperature;BMP_pressure;BME280_temperature;BME280_humidity;BME280_pressure;Samples;Min_cycle;Max_cycle;Signal;HPM_P1;HPM_P2
2022/06/27 00:00:29;;;;;;;1999.90;999.90;;;18.90;99.90;;;;;;5015488;28;20176;-68
2022/06/27 00:02:55;;;;;;;1999.90;999.90;;;18.90;99.90;;;;;;5015521;28;20176;-68
2022/06/27 00:05:20;;;;;;;1999.90;999.90;;;18.90;99.90;;;;;;5015388;28;20433;-68
2022/06/27 00:07:47;;;;;;;1999.90;999.90;;;18.90;99.90;;;;;;5014952;28;20660;-68
2022/06/27 00:10:13;;;;;;;1999.90;999.90;;;18.90;99.90;;;;;;5015139;28;20692;-68
2022/06/27 00:12:39;;;;;;;1999.90;999.90;;;18.90;99.90;;;;;;5015225;28;20422;-68
2022/06/27 00:15:07;;;;;;;1999.90;999.90;;;18.90;99.90;;;;;;5015065;28;20468;-68
2022/06/27 00:17:32;;;;;;;1999.90;999.90;;;18.90;99.90;;;;;;5014886;28;20405;-68
2022/06/27 00:19:58;;;;;;;1999.90;999.90;;;18.90;99.90;;;;;;5015013;28;20437;-68
2022/06/27 00:22:26;;;;;;;1999.90;999.90;;;18.90;99.90;;;;;;5015063;28;20168;-68
2022/06/27 00:24:52;;;;;;;1999.90;999.90;;;19.00;99.90;;;;;;5014951;28;20461;-68
2022/06/27 00:27:17;;;;;;;1999.90;999.90;;;19.00;99.90;;;;;;5014094;28;20397;-69
2022/06/27 00:29:43;;;;;;;1999.90;999.90;;;18.80;99.90;;;;;;5014033;28;20198;-68
2022/06/27 00:32:09;;;;;;;1999.90;999.90;;;18.70;99.90;;;;;;5014862;28;20322;-68
2022/06/27 00:34:35;;;;;;;1999.90;999.90;;;18.60;99.90;;;;;;5014754;28;20199;-67
2022/06/27 00:37:01;;;;;;;1999.90;999.90;;;18.60;99.90;;;;;;5014444;28;20257;-68
2022/06/27 00:39:26;;;;;;;1999.90;999.90;;;18.60;99.90;;;;;;5014555;28;20466;-67
2022/06/27 00:41:53;;;;;;;1999.90;999.90;;;18.60;99.90;;;;;;5014636;28;20176;-68
2022/06/27 00:44:35;;;;;;;1999.90;999.90;;;18.50;99.90;;;;;;5014588;28;20551;-67
2022/06/27 00:47:03;;;;;;;1999.90;999.90;;;18.40;99.90;;;;;;5014201;28;20433;-68
2022/06/27 00:49:29;;;;;;;1999.90;999.90;;;18.40;99.90;;;;;;5014433;28;20898;-68
2022/06/27 00:51:55;;;;;;;1999.90;999.90;;;18.40;99.90;;;;;;5014542;28;20454;-68
2022/06/27 00:54:22;;;;;;;1999.90;999.90;;;18.30;99.90;;;;;;5014298;28;20221;-68
2022/06/27 00:56:48;;;;;;;1999.90;999.90;;;18.40;99.90;;;;;;5014396;28;20404;-68
2022/06/27 00:59:14;;;;;;;1999.90;999.90;;;18.40;99.90;;;;;;5014282;28;20427;-68
2022/06/27 01:01:40;;;;;;;1999.90;999.90;;;18.30;99.90;;;;;;5014263;28;20401;-68
2022/06/27 01:04:06;;;;;;;1999.90;999.90;;;18.40;99.90;;;;;;5014224;28;20251;-68
2022/06/27 01:06:32;;;;;;;1999.90;999.90;;;18.30;99.90;;;;;;5014071;28;20450;-68
2022/06/27 01:08:58;;;;;;;1999.90;999.90;;;18.20;99.90;;;;;;5014008;28;20600;-68
2022/06/27 01:11:24;;;;;;;1999.90;999.90;;;18.10;99.90;;;;;;5014277;28;20544;-68
2022/06/27 01:13:49;;;;;;;1999.90;999.90;;;18.00;99.90;;;;;;5013986;28;20194;-68
2022/06/27 01:16:15;;;;;;;1999.90;999.90;;;17.90;99.90;;;;;;5013821;28;20169;-68
2022/06/27 01:18:42;;;;;;;1999.90;999.90;;;17.90;99.90;;;;;;5013904;28;20188;-68
2022/06/27 01:21:08;;;;;;;1999.90;999.90;;;17.80;99.90;;;;;;5013874;28;20412;-68
2022/06/27 01:23:35;;;;;;;1999.90;999.90;;;17.80;99.90;;;;;;5013806;28;20418;-68
2022/06/27 01:26:00;;;;;;;1999.90;999.90;;;17.80;99.90;;;;;;5013680;28;20488;-68
2022/06/27 01:28:26;;;;;;;1999.90;999.90;;;17.80;99.90;;;;;;5013732;28;20419;-68
2022/06/27 01:30:52;;;;;;;1999.90;999.90;;;17.70;99.90;;;;;;5013598;28;20722;-68
2022/06/27 01:33:18;;;;;;;1999.90;999.90;;;17.70;99.90;;;;;;5013741;28;20575;-68
2022/06/27 01:35:44;;;;;;;1999.90;999.90;;;17.60;99.90;;;;;;5013449;28;20556;-67
2022/06/27 01:38:09;;;;;;;1999.90;999.90;;;17.60;99.90;;;;;;5013211;28;20412;-68
2022/06/27 01:40:35;;;;;;;1999.90;999.90;;;17.50;99.90;;;;;;5013098;28;20207;-68
2022/06/27 01:43:01;;;;;;;1999.90;999.90;;;17.50;99.90;;;;;;5013512;28;20655;-68
2022/06/27 01:45:29;;;;;;;1999.90;999.90;;;17.50;99.90;;;;;;5013581;28;20177;-68
2022/06/27 01:47:55;;;;;;;1999.90;999.90;;;17.40;99.90;;;;;;5013185;28;20495;-68
2022/06/27 01:50:24;;;;;;;1999.90;999.90;;;17.50;99.90;;;;;;5013219;28;20881;-68
2022/06/27 01:52:52;;;;;;;1999.90;999.90;;;17.40;99.90;;;;;;5013288;28;20409;-68
2022/06/27 01:55:19;;;;;;;1999.90;999.90;;;17.40;99.90;;;;;;5013262;28;20470;-68
2022/06/27 01:57:46;;;;;;;1999.90;999.90;;;17.40;99.90;;;;;;5012980;28;20502;-68
2022/06/27 02:00:14;;;;;;;1999.90;999.90;;;17.40;99.90;;;;;;5013172;28;20430;-68
2022/06/27 02:02:43;;;;;;;1999.90;999.90;;;17.40;99.90;;;;;;5013255;28;20420;-68
2022/06/27 02:05:09;;;;;;;1999.90;999.90;;;17.40;99.90;;;;;;5013000;28;20963;-68
2022/06/27 02:07:38;;;;;;;1999.90;999.90;;;17.40;99.90;;;;;;5012788;28;20414;-68
2022/06/27 02:10:05;;;;;;;1999.90;999.90;;;17.40;99.90;;;;;;5013097;28;20244;-68
2022/06/27 02:12:31;;;;;;;1999.90;999.90;;;17.40;99.90;;;;;;5013024;28;20419;-68
2022/06/27 02:14:56;;;;;;;1999.90;999.90;;;17.40;99.90;;;;;;5012839;28;20441;-68
2022/06/27 02:17:22;;;;;;;1999.90;999.90;;;17.40;99.90;;;;;;5012657;28;20181;-68
2022/06/27 02:19:49;;;;;;;1999.90;999.90;;;17.40;99.90;;;;;;5012792;28;20539;-68
2022/06/27 02:22:15;;;;;;;1999.90;999.90;;;17.40;99.90;;;;;;5012772;28;20495;-68
2022/06/27 02:24:42;;;;;;;1999.90;999.90;;;17.30;99.90;;;;;;5012854;28;20921;-68
2022/06/27 02:27:09;;;;;;;1999.90;999.90;;;17.40;99.90;;;;;;5012528;28;20411;-68
2022/06/27 02:29:36;;;;;;;1999.90;999.90;;;17.30;99.90;;;;;;5012687;28;20402;-68
2022/06/27 02:32:03;;;;;;;1999.90;999.90;;;17.40;99.90;;;;;;5012629;28;20412;-68
2022/06/27 02:34:29;;;;;;;1999.90;999.90;;;17.40;99.90;;;;;;5012669;28;20459;-68
2022/06/27 02:36:56;;;;;;;1999.90;999.90;;;17.40;99.90;;;;;;5046416;23;20864;-70
2022/06/27 02:39:24;;;;;;;1999.90;999.90;;;17.40;99.90;;;;;;4973650;28;20412;-70
2022/06/27 02:41:53;;;;;;;1999.90;999.90;;;17.40;99.90;;;;;;4973606;28;20461;-70
2022/06/27 02:44:21;;;;;;;1999.90;999.90;;;17.40;99.90;;;;;;4973543;28;20466;-71
2022/06/27 02:46:48;;;;;;;1999.90;999.90;;;17.40;99.90;;;;;;4973097;28;20454;-70
2022/06/27 02:49:14;;;;;;;1999.90;999.90;;;17.40;99.90;;;;;;4973589;28;20774;-71
2022/06/27 02:51:57;;;;;;;1999.90;999.90;;;17.40;99.90;;;;;;4972545;28;20400;-70
2022/06/27 02:54:39;;;;;;;1999.90;999.90;;;17.50;99.90;;;;;;4973286;28;20217;-70
2022/06/27 02:57:16;;;;;;;1999.90;999.90;;;17.60;99.90;;;;;;4972934;28;20430;-70
2022/06/27 02:59:43;;;;;;;1999.90;999.90;;;17.70;99.90;;;;;;4973522;28;20405;-70
2022/06/27 03:02:10;;;;;;;1999.90;999.90;;;17.70;99.90;;;;;;4973263;28;20411;-70
2022/06/27 03:04:37;;;;;;;1999.90;999.90;;;17.80;99.90;;;;;;4973308;28;20944;-70
2022/06/27 03:07:03;;;;;;;1999.90;999.90;;;17.90;99.90;;;;;;4972864;28;20465;-70
2022/06/27 03:09:29;;;;;;;1999.90;999.90;;;18.00;99.90;;;;;;4973190;28;20908;-70
2022/06/27 03:11:54;;;;;;;1999.90;999.90;;;18.00;99.90;;;;;;4973198;28;20172;-70
2022/06/27 03:14:20;;;;;;;1999.90;999.90;;;18.10;99.90;;;;;;4973099;28;20227;-71
2022/06/27 03:16:46;;;;;;;1999.90;999.90;;;18.10;99.90;;;;;;4972820;28;20168;-71
2022/06/27 03:19:12;;;;;;;1999.90;999.90;;;18.20;99.90;;;;;;4973132;28;20263;-70
2022/06/27 03:21:37;;;;;;;1999.90;999.90;;;18.10;99.90;;;;;;4973114;28;20176;-70
2022/06/27 03:24:03;;;;;;;1999.90;999.90;;;18.10;99.90;;;;;;4973013;28;20416;-70
2022/06/27 03:26:30;;;;;;;1999.90;999.90;;;18.20;99.90;;;;;;4972954;28;20184;-70
2022/06/27 03:28:55;;;;;;;1999.90;999.90;;;18.20;99.90;;;;;;4973039;28;20404;-71
2022/06/27 03:31:21;;;;;;;1999.90;999.90;;;18.30;99.90;;;;;;4973006;28;20410;-70
2022/06/27 03:33:46;;;;;;;1999.90;999.90;;;18.30;99.90;;;;;;4973055;28;20648;-70
2022/06/27 03:36:12;;;;;;;1999.90;999.90;;;18.30;99.90;;;;;;4972664;28;20610;-71
2022/06/27 03:38:38;;;;;;;1999.90;999.90;;;18.30;99.90;;;;;;4972796;28;20198;-70
2022/06/27 03:41:04;;;;;;;1999.90;999.90;;;18.20;99.90;;;;;;4972885;28;20640;-70
2022/06/27 03:43:30;;;;;;;1999.90;999.90;;;18.20;99.90;;;;;;4972921;28;20407;-71
2022/06/27 03:45:56;;;;;;;1999.90;999.90;;;18.20;99.90;;;;;;4972700;28;20178;-70
2022/06/27 03:51:07;;;;;;;1999.90;999.90;;;18.10;99.90;;;;;;4973104;28;20617;-70
2022/06/27 03:53:32;;;;;;;1999.90;999.90;;;18.10;99.90;;;;;;4972704;28;20491;-70
2022/06/27 03:55:58;;;;;;;1999.90;999.90;;;18.20;99.90;;;;;;4972562;28;20164;-69
2022/06/27 03:58:23;;;;;;;1999.90;999.90;;;18.30;99.90;;;;;;4972696;28;20994;-71
2022/06/27 04:00:49;;;;;;;1999.90;999.90;;;18.30;99.90;;;;;;4972750;28;20657;-70
2022/06/27 04:03:15;;;;;;;1999.90;999.90;;;18.30;99.90;;;;;;4974783;28;20181;-70
2022/06/27 04:05:40;;;;;;;1999.90;999.90;;;18.40;99.90;;;;;;4976284;28;20536;-70
2022/06/27 04:08:06;;;;;;;1999.90;999.90;;;18.40;99.90;;;;;;4976123;28;20201;-71
2022/06/27 04:10:32;;;;;;;1999.90;999.90;;;18.50;99.90;;;;;;4976272;28;20170;-70
2022/06/27 04:12:58;;;;;;;1999.90;999.90;;;18.50;99.90;;;;;;4976344;28;20466;-70
2022/06/27 04:15:23;;;;;;;1999.90;999.90;;;18.60;99.90;;;;;;4976045;28;20199;-70
2022/06/27 04:17:49;;;;;;;1999.90;999.90;;;18.60;99.90;;;;;;4975757;28;20197;-70
2022/06/27 04:20:15;;;;;;;1999.90;999.90;;;18.60;99.90;;;;;;4976042;28;20166;-70
2022/06/27 04:22:40;;;;;;;1999.90;999.90;;;18.60;99.90;;;;;;4975987;28;20236;-70
2022/06/27 04:25:07;;;;;;;1999.90;999.90;;;18.60;99.90;;;;;;4975965;28;20176;-70
2022/06/27 04:27:33;;;;;;;1999.90;999.90;;;18.60;99.90;;;;;;4975768;28;20202;-70
2022/06/27 04:29:58;;;;;;;1999.90;999.90;;;18.60;99.90;;;;;;4975942;28;20843;-70
2022/06/27 04:32:25;;;;;;;1999.90;999.90;;;18.60;99.90;;;;;;4975792;28;20418;-70
2022/06/27 04:34:51;;;;;;;1999.90;999.90;;;18.70;99.90;;;;;;4975649;28;20212;-70
2022/06/27 04:37:17;;;;;;;1999.90;999.90;;;18.70;99.90;;;;;;4975635;28;20493;-70
2022/06/27 04:39:43;;;;;;;1999.90;999.90;;;18.80;99.90;;;;;;4975914;28;20431;-71
2022/06/27 04:42:09;;;;;;;1999.90;999.90;;;18.80;99.90;;;;;;4975687;28;20409;-70
2022/06/27 04:44:36;;;;;;;1999.90;999.90;;;18.80;99.90;;;;;;4975744;28;20410;-70
2022/06/27 04:47:08;;;;;;;1999.90;999.90;;;18.80;99.90;;;;;;4975319;28;20458;-71
2022/06/27 04:49:35;;;;;;;1999.90;999.90;;;18.80;99.90;;;;;;4975438;28;20566;-71
2022/06/27 04:52:01;;;;;;;1999.90;999.90;;;18.80;99.90;;;;;;4975462;28;20929;-70
2022/06/27 04:54:27;;;;;;;1999.90;999.90;;;18.80;99.90;;;;;;4975544;28;20463;-70
2022/06/27 04:56:54;;;;;;;1999.90;999.90;;;18.80;99.90;;;;;;4975059;28;20193;-71
2022/06/27 04:59:21;;;;;;;1999.90;999.90;;;18.90;99.90;;;;;;4975315;28;20180;-71
2022/06/27 05:01:49;;;;;;;1999.90;999.90;;;18.90;99.90;;;;;;4975368;28;21108;-71
2022/06/27 05:04:18;;;;;;;1999.90;999.90;;;19.00;99.90;;;;;;4975172;28;20416;-70
2022/06/27 05:06:45;;;;;;;1999.90;999.90;;;19.10;99.90;;;;;;4974931;28;20885;-70
2022/06/27 05:09:11;;;;;;;1999.90;999.90;;;19.10;99.90;;;;;;4975185;28;20423;-70
2022/06/27 05:11:37;;;;;;;1999.90;999.90;;;19.20;99.90;;;;;;4975130;28;20511;-70
2022/06/27 05:14:02;;;;;;;1999.90;999.90;;;19.30;99.90;;;;;;4974268;28;20546;-71
2022/06/27 05:16:28;;;;;;;1999.90;999.90;;;19.30;99.90;;;;;;4974781;28;20168;-71
2022/06/27 05:18:54;;;;;;;1999.90;999.90;;;19.40;99.90;;;;;;4974934;28;20170;-71
2022/06/27 05:21:19;;;;;;;1999.90;999.90;;;19.40;99.90;;;;;;4974923;28;20265;-70
2022/06/27 05:23:45;;;;;;;1999.90;999.90;;;19.50;99.90;;;;;;4974911;28;20246;-69
2022/06/27 05:26:11;;;;;;;1999.90;999.90;;;19.50;99.90;;;;;;4974498;28;20216;-71
2022/06/27 05:28:37;;;;;;;1999.90;999.90;;;19.50;99.90;;;;;;4974743;28;20182;-70
2022/06/27 05:31:03;;;;;;;1999.90;999.90;;;19.50;99.90;;;;;;4974848;28;20265;-71
2022/06/27 05:33:28;;;;;;;1999.90;999.90;;;19.60;99.90;;;;;;4974581;28;20448;-71
2022/06/27 05:35:54;;;;;;;1999.90;999.90;;;19.60;99.90;;;;;;4974495;28;20629;-70
2022/06/27 05:38:20;;;;;;;1999.90;999.90;;;19.70;99.90;;;;;;4974273;28;20718;-70
2022/06/27 05:40:46;;;;;;;1999.90;999.90;;;19.60;99.90;;;;;;4974598;28;20174;-71
2022/06/27 05:43:15;;;;;;;1999.90;999.90;;;19.50;99.90;;;;;;4974501;28;20175;-71
2022/06/27 05:45:41;;;;;;;1999.90;999.90;;;19.50;99.90;;;;;;4974524;28;20406;-70
2022/06/27 05:48:07;;;;;;;1999.90;999.90;;;19.30;99.90;;;;;;4974026;28;20425;-70
2022/06/27 05:50:33;;;;;;;1999.90;999.90;;;19.20;99.90;;;;;;4974522;28;20402;-70
2022/06/27 05:53:01;;;;;;;1999.90;999.90;;;19.20;99.90;;;;;;4974383;28;20410;-71
2022/06/27 05:55:28;;;;;;;1999.90;999.90;;;19.10;99.90;;;;;;4974231;28;20461;-70
2022/06/27 05:57:58;;;;;;;1999.90;999.90;;;19.10;99.90;;;;;;4973921;28;20555;-70
2022/06/27 06:00:25;;;;;;;1999.90;999.90;;;19.10;99.90;;;;;;4974156;28;20417;-70
2022/06/27 06:02:52;;;;;;;1999.90;999.90;;;19.20;99.90;;;;;;4974156;28;20415;-70
2022/06/27 06:05:18;;;;;;;1999.90;999.90;;;19.10;99.90;;;;;;4974120;28;20422;-70
2022/06/27 06:07:45;;;;;;;1999.90;999.90;;;19.10;99.90;;;;;;4973725;28;20428;-71
2022/06/27 06:10:12;;;;;;;1999.90;999.90;;;19.20;99.90;;;;;;4974031;28;20198;-71
2022/06/27 06:12:38;;;;;;;1999.90;999.90;;;19.20;99.90;;;;;;4973991;28;20438;-70
2022/06/27 06:15:05;;;;;;;1999.90;999.90;;;19.30;99.90;;;;;;4973907;28;21232;-71
2022/06/27 06:17:33;;;;;;;1999.90;999.90;;;19.20;99.90;;;;;;4973522;28;20424;-70
2022/06/27 06:19:59;;;;;;;1999.90;999.90;;;19.20;99.90;;;;;;4973818;28;20404;-70
2022/06/27 06:22:25;;;;;;;1999.90;999.90;;;19.20;99.90;;;;;;4973787;28;20417;-70
2022/06/27 06:24:50;;;;;;;1999.90;999.90;;;19.10;99.90;;;;;;4973794;28;20419;-70
2022/06/27 06:27:20;;;;;;;1999.90;999.90;;;19.20;99.90;;;;;;4973439;28;20826;-71
2022/06/27 06:29:47;;;;;;;1999.90;999.90;;;19.10;99.90;;;;;;4973719;28;20555;-70
2022/06/27 06:32:13;;;;;;;1999.90;999.90;;;19.10;99.90;;;;;;4973758;28;20423;-70
2022/06/27 06:34:40;;;;;;;1999.90;999.90;;;19.20;99.90;;;;;;4973704;28;20540;-71
2022/06/27 06:37:06;;;;;;;1999.90;999.90;;;19.20;99.90;;;;;;4973124;28;20446;-70
2022/06/27 06:39:32;;;;;;;1999.90;999.90;;;19.20;99.90;;;;;;4973574;28;20527;-71
2022/06/27 06:41:58;;;;;;;1999.90;999.90;;;19.30;99.90;;;;;;4973479;28;20905;-70
2022/06/27 06:44:24;;;;;;;1999.90;999.90;;;19.40;99.90;;;;;;4973363;28;20417;-71
2022/06/27 06:46:55;;;;;;;1999.90;999.90;;;19.50;99.90;;;;;;4973481;28;20200;-71
2022/06/27 06:49:22;;;;;;;1999.90;999.90;;;19.60;99.90;;;;;;4973624;28;20783;-70
2022/06/27 06:51:48;;;;;;;1999.90;999.90;;;19.70;99.90;;;;;;4973429;28;20413;-70
2022/06/27 06:54:15;;;;;;;1999.90;999.90;;;19.80;99.90;;;;;;4973297;28;20502;-71
2022/06/27 06:56:41;;;;;;;1999.90;999.90;;;19.90;99.90;;;;;;4972913;28;20533;-71
2022/06/27 06:59:07;;;;;;;1999.90;999.90;;;20.00;99.90;;;;;;4973376;28;20498;-70
2022/06/27 07:01:33;;;;;;;1999.90;999.90;;;19.90;99.90;;;;;;4973159;28;20404;-71
2022/06/27 07:04:00;;;;;;;1999.90;999.90;;;19.90;99.90;;;;;;4973258;28;20496;-71
2022/06/27 07:06:29;;;;;;;1999.90;999.90;;;20.10;99.90;;;;;;4973038;28;20567;-71
2022/06/27 07:08:57;;;;;;;1999.90;999.90;;;20.30;99.90;;;;;;4973273;28;20406;-71
2022/06/27 07:11:35;;;;;;;1999.90;999.90;;;20.40;99.90;;;;;;4973024;28;20397;-71
2022/06/27 07:14:00;;;;;;;1999.90;999.90;;;20.50;99.90;;;;;;4973295;28;20458;-71
2022/06/27 07:16:26;;;;;;;1999.90;999.90;;;20.40;99.90;;;;;;4972819;28;20432;-70
2022/06/27 07:18:54;;;;;;;1999.90;999.90;;;20.40;99.90;;;;;;4973079;28;20217;-70
2022/06/27 07:21:21;;;;;;;1999.90;999.90;;;20.40;99.90;;;;;;4973057;28;20450;-71
2022/06/27 07:23:48;;;;;;;1999.90;999.90;;;20.30;99.90;;;;;;4972969;28;20413;-70
2022/06/27 07:26:16;;;;;;;1999.90;999.90;;;20.30;99.90;;;;;;4972987;28;20472;-71
2022/06/27 07:28:42;;;;;;;1999.90;999.90;;;20.40;99.90;;;;;;4972875;28;20471;-70
2022/06/27 07:31:09;;;;;;;1999.90;999.90;;;20.60;99.90;;;;;;4972948;28;20409;-71
2022/06/27 07:33:36;;;;;;;1999.90;999.90;;;20.70;99.90;;;;;;4972969;28;20501;-71
2022/06/27 07:36:03;;;;;;;1999.90;999.90;;;20.80;99.90;;;;;;4972607;28;20909;-70
2022/06/27 07:38:32;;;;;;;1999.90;999.90;;;20.80;99.90;;;;;;4975317;28;20496;-71
2022/06/27 07:40:58;;;;;;;1999.90;999.90;;;20.90;99.90;;;;;;4976775;28;20912;-71
2022/06/27 07:43:24;;;;;;;1999.90;999.90;;;21.00;99.90;;;;;;4976681;28;20417;-70
2022/06/27 07:45:50;;;;;;;1999.90;999.90;;;21.10;99.90;;;;;;4976672;28;20406;-71
2022/06/27 07:48:20;;;;;;;1999.90;999.90;;;21.10;99.90;;;;;;4976432;28;20221;-71
2022/06/27 07:50:46;;;;;;;1999.90;999.90;;;21.00;99.90;;;;;;4976532;28;20398;-71
2022/06/27 07:53:13;;;;;;;1999.90;999.90;;;21.00;99.90;;;;;;4976548;28;20417;-71
2022/06/27 07:55:50;;;;;;;1999.90;999.90;;;20.90;99.90;;;;;;4976522;28;20832;-70
2022/06/27 07:58:19;;;;;;;1999.90;999.90;;;20.90;99.90;;;;;;4976288;28;20505;-71
2022/06/27 08:00:50;;;;;;;1999.90;999.90;;;20.80;99.90;;;;;;4976334;28;20431;-71
2022/06/27 08:03:36;;;;;;;1999.90;999.90;;;20.70;99.90;;;;;;4976632;28;20981;-71
2022/06/27 08:06:04;;;;;;;1999.90;999.90;;;20.60;99.90;;;;;;4976083;28;20917;-71
2022/06/27 08:08:32;;;;;;;1999.90;999.90;;;20.50;99.90;;;;;;4976158;28;20935;-71
2022/06/27 08:10:58;;;;;;;1999.90;999.90;;;20.40;99.90;;;;;;4976219;28;20448;-71
2022/06/27 08:13:24;;;;;;;1999.90;999.90;;;20.40;99.90;;;;;;4976091;28;20445;-70
2022/06/27 08:15:50;;;;;;;1999.90;999.90;;;20.40;99.90;;;;;;4975905;28;20215;-71
2022/06/27 08:18:16;;;;;;;1999.90;999.90;;;20.40;99.90;;;;;;4976043;28;20519;-71
2022/06/27 08:20:44;;;;;;;1999.90;999.90;;;20.30;99.90;;;;;;4976095;28;20406;-71
2022/06/27 08:23:10;;;;;;;1999.90;999.90;;;20.20;99.90;;;;;;4975946;28;20440;-70
2022/06/27 08:25:37;;;;;;;1999.90;999.90;;;20.20;99.90;;;;;;4975887;28;20406;-70
2022/06/27 08:28:03;;;;;;;1999.90;999.90;;;20.20;99.90;;;;;;4975580;28;20429;-72
2022/06/27 08:30:29;;;;;;;1999.90;999.90;;;20.10;99.90;;;;;;4975787;28;20921;-71
2022/06/27 08:32:55;;;;;;;1999.90;999.90;;;20.10;99.90;;;;;;4976001;28;20529;-71
2022/06/27 08:35:24;;;;;;;1999.90;999.90;;;20.20;99.90;;;;;;4975848;28;20463;-71
2022/06/27 08:37:55;;;;;;;1999.90;999.90;;;20.30;99.90;;;;;;4975780;28;20420;-71
2022/06/27 08:40:21;;;;;;;1999.90;999.90;;;20.40;99.90;;;;;;4975729;28;20406;-71
2022/06/27 08:42:48;;;;;;;1999.90;999.90;;;20.40;99.90;;;;;;4975610;28;20474;-71
2022/06/27 08:45:15;;;;;;;1999.90;999.90;;;20.50;99.90;;;;;;4975606;28;20183;-71
2022/06/27 08:47:42;;;;;;;1999.90;999.90;;;20.60;99.90;;;;;;4975261;28;20433;-71
2022/06/27 08:50:09;;;;;;;1999.90;999.90;;;20.70;99.90;;;;;;4974330;28;20422;-71
2022/06/27 08:52:39;;;;;;;1999.90;999.90;;;20.60;99.90;;;;;;4975414;28;20417;-71
2022/06/27 08:55:09;;;;;;;1999.90;999.90;;;20.60;99.90;;;;;;4975431;28;20451;-70
2022/06/27 08:57:36;;;;;;;1999.90;999.90;;;20.70;99.90;;;;;;4974947;28;20463;-71
2022/06/27 09:00:06;;;;;;;1999.90;999.90;;;20.80;99.90;;;;;;4975578;28;20415;-71
2022/06/27 09:02:42;;;;;;;1999.90;999.90;;;20.90;99.90;;;;;;4975679;28;20431;-71
2022/06/27 09:05:26;;;;;;;1999.90;999.90;;;21.00;99.90;;;;;;4975093;28;20482;-71
2022/06/27 09:07:56;;;;;;;1999.90;999.90;;;21.20;99.90;;;;;;4974875;28;20432;-71
2022/06/27 09:10:26;;;;;;;1999.90;999.90;;;21.40;99.90;;;;;;4975204;28;20770;-71
2022/06/27 09:12:58;;;;;;;1999.90;999.90;;;21.60;99.90;;;;;;4975008;28;20417;-71
2022/06/27 09:15:48;;;;;;;1999.90;999.90;;;21.80;99.90;;;;;;4975072;28;20483;-71
2022/06/27 09:18:16;;;;;;;1999.90;999.90;;;21.80;99.90;;;;;;4974711;28;20928;-71
2022/06/27 09:21:00;;;;;;;1999.90;999.90;;;21.70;99.90;;;;;;4973404;28;20792;-70
2022/06/27 09:26:39;;;;;;;1999.90;999.90;;;21.90;99.90;;;;;;4974254;28;20784;-71
2022/06/27 09:29:12;;;;;;;1999.90;999.90;;;21.90;99.90;;;;;;4974195;28;20425;-71
2022/06/27 09:31:48;;;;;;;1999.90;999.90;;;22.00;99.90;;;;;;4958219;28;20417;-71
2022/06/27 09:34:25;;;;;;;1999.90;999.90;;;22.10;99.90;;;;;;4954337;28;20453;-69
2022/06/27 09:37:01;;;;;;;1999.90;999.90;;;22.10;99.90;;;;;;4953252;29;20841;-72
2022/06/27 09:39:29;;;;;;;1999.90;999.90;;;22.10;99.90;;;;;;4961212;28;20423;-71
2022/06/27 09:41:59;;;;;;;1999.90;999.90;;;22.00;99.90;;;;;;4973532;28;20404;-71
2022/06/27 09:44:30;;;;;;;1999.90;999.90;;;22.00;99.90;;;;;;4969639;28;20921;-71
2022/06/27 09:47:27;;;;;;;1999.90;999.90;;;22.00;99.90;;;;;;4973237;28;20422;-71
2022/06/27 09:49:55;;;;;;;1999.90;999.90;;;22.00;99.90;;;;;;4972519;28;20469;-71
2022/06/27 09:52:26;;;;;;;1999.90;999.90;;;21.90;99.90;;;;;;4973225;28;20416;-71
2022/06/27 09:54:54;;;;;;;1999.90;999.90;;;22.00;99.90;;;;;;4973829;28;20461;-70
2022/06/27 09:57:21;;;;;;;1999.90;999.90;;;22.10;99.90;;;;;;4973099;28;20942;-71
2022/06/27 09:59:50;;;;;;;1999.90;999.90;;;22.20;99.90;;;;;;4972205;28;20476;-70
2022/06/27 10:02:18;;;;;;;1999.90;999.90;;;22.20;99.90;;;;;;4973338;28;20439;-71
2022/06/27 10:04:44;;;;;;;1999.90;999.90;;;22.20;99.90;;;;;;4973454;28;20412;-72
2022/06/27 10:07:12;;;;;;;1999.90;999.90;;;22.10;99.90;;;;;;4972486;28;20454;-71
2022/06/27 10:09:40;;;;;;;1999.90;999.90;;;22.00;99.90;;;;;;4972903;28;20420;-70
2022/06/27 10:12:29;;;;;;;1999.90;999.90;;;22.00;99.90;;;;;;4973447;28;20401;-68
2022/06/27 10:15:10;;;;;;;1999.90;999.90;;;22.00;99.90;;;;;;4973309;28;20453;-69
2022/06/27 10:17:49;;;;;;;1999.90;999.90;;;22.10;99.90;;;;;;4972818;28;20435;-68
2022/06/27 10:20:36;;;;;;;1999.90;999.90;;;22.10;99.90;;;;;;4972908;28;20407;-69
2022/06/27 10:23:14;;;;;;;1999.90;999.90;;;22.10;99.90;;;;;;4973212;28;20567;-68
2022/06/27 10:25:42;;;;;;;1999.90;999.90;;;22.10;99.90;;;;;;4973330;28;20806;-68
2022/06/27 10:28:07;;;;;;;1999.90;999.90;;;22.10;99.90;;;;;;4972164;28;20418;-69
2022/06/27 10:30:36;;;;;;;1999.90;999.90;;;22.20;99.90;;;;;;4972902;28;20385;-69
2022/06/27 10:33:24;;;;;;;1999.90;999.90;;;22.20;99.90;;;;;;4972958;28;20255;-70
2022/06/27 10:35:59;;;;;;;1999.90;999.90;;;22.20;99.90;;;;;;4972459;28;20517;-68
2022/06/27 10:38:24;;;;;;;1999.90;999.90;;;22.30;99.90;;;;;;4972745;28;20968;-70
2022/06/27 10:40:51;;;;;;;1999.90;999.90;;;22.40;99.90;;;;;;4972770;28;20444;-70
2022/06/27 10:43:35;;;;;;;1999.90;999.90;;;22.40;99.90;;;;;;4972422;28;20174;-69
2022/06/27 10:46:10;;;;;;;1999.90;999.90;;;22.40;99.90;;;;;;4972406;28;20795;-69
2022/06/27 10:48:44;;;;;;;1999.90;999.90;;;22.30;99.90;;;;;;4972752;28;20498;-70
2022/06/27 10:51:24;;;;;;;1999.90;999.90;;;22.40;99.90;;;;;;4972092;28;20400;-70
2022/06/27 10:54:06;;;;;;;1999.90;999.90;;;22.60;99.90;;;;;;4972794;28;20984;-70
2022/06/27 10:56:33;;;;;;;1999.90;999.90;;;22.80;99.90;;;;;;4972187;28;20492;-70
2022/06/27 10:59:01;;;;;;;1999.90;999.90;;;22.90;99.90;;;;;;4972263;28;20383;-70
2022/06/27 11:01:27;;;;;;;1999.90;999.90;;;23.20;99.90;;;;;;4972709;28;20479;-71
2022/06/27 11:03:53;;;;;;;1999.90;999.90;;;23.40;99.90;;;;;;4972607;28;20729;-71
2022/06/27 11:06:19;;;;;;;1999.90;999.90;;;23.60;99.90;;;;;;4971836;28;20435;-70
2022/06/27 11:08:47;;;;;;;1999.90;999.90;;;23.80;99.90;;;;;;4972283;28;20404;-70
2022/06/27 11:11:22;;;;;;;1999.90;999.90;;;24.00;99.90;;;;;;4972474;28;20409;-70
2022/06/27 11:13:55;;;;;;;1999.90;999.90;;;24.00;99.90;;;;;;4971574;28;20522;-70
2022/06/27 11:16:26;;;;;;;1999.90;999.90;;;24.10;99.90;;;;;;4972142;28;20387;-70
2022/06/27 11:19:03;;;;;;;1999.90;999.90;;;24.10;99.90;;;;;;4972543;28;20407;-70
2022/06/27 11:21:36;;;;;;;1999.90;999.90;;;24.30;99.90;;;;;;4972348;28;20380;-70
2022/06/27 11:24:09;;;;;;;1999.90;999.90;;;24.50;99.90;;;;;;4972486;28;20468;-70
2022/06/27 11:26:38;;;;;;;1999.90;999.90;;;24.60;99.90;;;;;;4971680;28;20471;-70
2022/06/27 11:32:04;;;;;;;1999.90;999.90;;;25.10;99.90;;;;;;4972194;28;20384;-70
2022/06/27 11:34:36;;;;;;;1999.90;999.90;;;25.40;99.90;;;;;;4971842;28;20455;-70
2022/06/27 11:37:14;;;;;;;1999.90;999.90;;;25.60;99.90;;;;;;4971800;28;20427;-70
2022/06/27 11:39:41;;;;;;;1999.90;999.90;;;25.70;99.90;;;;;;4972379;28;20384;-70
2022/06/27 11:42:11;;;;;;;1999.90;999.90;;;25.70;99.90;;;;;;4971772;28;20484;-71
2022/06/27 11:44:39;;;;;;;1999.90;999.90;;;25.70;99.90;;;;;;4972154;28;20907;-70
2022/06/27 11:47:08;;;;;;;1999.90;999.90;;;25.80;99.90;;;;;;4971913;28;20437;-70
2022/06/27 11:49:36;;;;;;;1999.90;999.90;;;25.80;99.90;;;;;;4971968;28;20412;-70
2022/06/27 11:52:06;;;;;;;1999.90;999.90;;;26.00;99.90;;;;;;4972146;28;20388;-70
2022/06/27 11:54:43;;;;;;;1999.90;999.90;;;26.00;99.90;;;;;;4972084;28;20676;-70
2022/06/27 11:57:23;;;;;;;1999.90;999.90;;;25.80;99.90;;;;;;4971379;28;20486;-70
2022/06/27 11:59:50;;;;;;;1999.90;999.90;;;25.60;99.90;;;;;;4972176;28;20391;-70
2022/06/27 12:02:26;;;;;;;1999.90;999.90;;;25.40;99.90;;;;;;4972132;28;20407;-70
2022/06/27 12:05:02;;;;;;;1999.90;999.90;;;25.40;99.90;;;;;;4971671;28;20415;-70
2022/06/27 12:07:28;;;;;;;1999.90;999.90;;;25.40;99.90;;;;;;4971578;28;20864;-70
2022/06/27 12:09:53;;;;;;;1999.90;999.90;;;25.30;99.90;;;;;;4972139;28;20441;-70
2022/06/27 12:12:21;;;;;;;1999.90;999.90;;;25.20;99.90;;;;;;4971526;28;20253;-71